createdAt,value
2023-02-14T00:03:25.739Z,-2.65
2023-02-14T00:07:49.769Z,-2.72
2023-02-14T00:12:13.748Z,-2.74
2023-02-14T00:16:37.655Z,-2.75
2023-02-14T00:21:05.211Z,-2.74
2023-02-14T00:25:29.169Z,-2.79
2023-02-14T00:29:53.077Z,-2.75
2023-02-14T00:34:18.035Z,-2.71
2023-02-14T00:38:35.949Z,-2.67
2023-02-14T00:42:59.915Z,-2.66
2023-02-14T00:47:23.954Z,-2.68
2023-02-14T00:51:47.960Z,-2.87
2023-02-14T00:56:02.186Z,-2.93
2023-02-14T01:00:25.994Z,-2.90
2023-02-14T01:04:49.928Z,-2.87
2023-02-14T01:09:14.116Z,-2.85
2023-02-14T01:13:38.146Z,-2.77
2023-02-14T01:18:01.913Z,-2.71
2023-02-14T01:22:25.885Z,-2.67
2023-02-14T01:26:49.843Z,-2.68
2023-02-14T01:31:14.450Z,-2.71
2023-02-14T01:35:38.550Z,-2.74
2023-02-14T01:40:02.844Z,-2.72
2023-02-14T01:44:29.961Z,-2.71
2023-02-14T01:48:53.983Z,-2.75
2023-02-14T01:53:30.047Z,-2.78
2023-02-14T01:57:56.778Z,-2.73
2023-02-14T02:02:20.849Z,-2.69
2023-02-14T02:06:55.810Z,-2.67
2023-02-14T02:11:19.764Z,-2.67
2023-02-14T02:15:43.639Z,-2.67
2023-02-14T02:20:29.033Z,-2.71
2023-02-14T02:25:05.087Z,-2.77
2023-02-14T02:29:32.394Z,-2.81
2023-02-14T02:34:04.086Z,-2.84
2023-02-14T02:38:33.676Z,-2.85
2023-02-14T02:43:00.434Z,-2.86
2023-02-14T02:47:27.074Z,-2.80
2023-02-14T02:51:29.191Z,-2.79
2023-02-14T02:55:51.083Z,-2.89
2023-02-14T03:00:13.638Z,-2.99
2023-02-14T03:04:36.272Z,-3.00
2023-02-14T03:09:00.367Z,-2.99
2023-02-14T03:13:34.694Z,-2.93
2023-02-14T03:18:05.475Z,-2.90
2023-02-14T03:22:38.381Z,-2.86
2023-02-14T03:27:21.033Z,-2.86
2023-02-14T03:32:03.471Z,-2.90
2023-02-14T03:36:28.571Z,-2.95
2023-02-14T03:41:04.600Z,-2.96
2023-02-14T03:45:28.815Z,-2.96
2023-02-14T03:49:45.598Z,-2.94
2023-02-14T03:54:09.502Z,-2.92
2023-02-14T03:58:39.269Z,-2.91
2023-02-14T04:03:12.005Z,-2.91
2023-02-14T04:07:36.259Z,-2.94
2023-02-14T04:12:00.120Z,-3.00
2023-02-14T04:16:24.073Z,-3.01
2023-02-14T04:20:48.160Z,-3.12
2023-02-14T04:25:12.126Z,-3.21
2023-02-14T04:29:36.556Z,-3.14
2023-02-14T04:33:53.657Z,-3.06
2023-02-14T04:38:10.349Z,-3.12
2023-02-14T04:42:34.273Z,-3.25
2023-02-14T04:47:26.863Z,-3.27
2023-02-14T04:51:56.694Z,-3.36
2023-02-14T04:56:21.751Z,-3.45
2023-02-14T05:00:46.005Z,-3.48
2023-02-14T05:05:10.006Z,-3.49
2023-02-14T05:09:33.898Z,-3.53
2023-02-14T05:13:57.836Z,-3.62
2023-02-14T05:18:15.759Z,-3.60
2023-02-14T05:22:40.001Z,-3.57
2023-02-14T05:27:04.385Z,-3.60
2023-02-14T05:31:28.595Z,-3.62
2023-02-14T05:35:52.248Z,-3.62
2023-02-14T05:40:36.227Z,-3.63
2023-02-14T05:45:00.122Z,-3.73
2023-02-14T05:49:24.174Z,-3.74
2023-02-14T05:53:48.076Z,-3.80
2023-02-14T05:58:13.091Z,-3.80
2023-02-14T06:02:37.066Z,-3.87
2023-02-14T06:07:01.048Z,-3.88
2023-02-14T06:11:26.260Z,-3.86
2023-02-14T06:15:50.222Z,-3.82
2023-02-14T06:20:14.237Z,-3.82
2023-02-14T06:24:38.128Z,-3.74
2023-02-14T06:29:09.795Z,-3.76
2023-02-14T06:33:33.948Z,-3.71
2023-02-14T06:37:57.992Z,-3.61
2023-02-14T06:42:21.975Z,-3.46
2023-02-14T06:46:46.065Z,-3.32
2023-02-14T06:51:10.109Z,-3.21
2023-02-14T06:55:33.964Z,-3.03
2023-02-14T06:59:57.925Z,-2.81
2023-02-14T07:04:21.910Z,-2.61
2023-02-14T07:08:45.932Z,-2.40
2023-02-14T07:13:10.019Z,-2.13
2023-02-14T07:17:33.912Z,-1.91
2023-02-14T07:21:51.397Z,-1.70
2023-02-14T07:26:15.476Z,-1.51
2023-02-14T07:30:39.534Z,-1.32
2023-02-14T07:35:03.513Z,-1.11
2023-02-14T07:39:27.538Z,-0.83
2023-02-14T07:43:57.061Z,-0.64
2023-02-14T07:48:21.070Z,-0.46
2023-02-14T07:52:45.347Z,-0.30
2023-02-14T07:57:09.286Z,-0.09
2023-02-14T08:01:33.318Z,0.11
2023-02-14T08:05:57.539Z,0.36
2023-02-14T08:10:21.658Z,0.56
2023-02-14T08:14:47.006Z,0.78
2023-02-14T08:19:10.958Z,0.98
2023-02-14T08:23:34.960Z,1.18
2023-02-14T08:27:59.612Z,1.40
2023-02-14T08:32:24.046Z,1.61
2023-02-14T08:36:48.272Z,1.72
2023-02-14T08:41:13.391Z,1.67
2023-02-14T08:45:37.276Z,1.86
2023-02-14T08:50:02.156Z,2.09
2023-02-14T08:54:26.407Z,2.34
2023-02-14T08:58:44.458Z,2.60
2023-02-14T09:03:08.778Z,2.81
2023-02-14T09:07:25.125Z,3.12
2023-02-14T09:11:49.894Z,3.49
2023-02-14T09:16:10.547Z,3.71
2023-02-14T09:20:34.516Z,3.94
2023-02-14T09:24:58.583Z,4.14
2023-02-14T09:29:42.408Z,4.45
2023-02-14T09:34:08.946Z,4.73
2023-02-14T09:38:52.919Z,5.06
2023-02-14T09:43:17.084Z,5.27
2023-02-14T09:47:41.095Z,5.54
2023-02-14T09:52:17.232Z,5.92
2023-02-14T09:56:51.214Z,6.30
2023-02-14T10:01:26.798Z,6.66
2023-02-14T10:05:53.634Z,6.74
2023-02-14T10:10:22.219Z,6.91
2023-02-14T10:14:51.970Z,7.13
2023-02-14T10:19:21.743Z,7.29
2023-02-14T10:23:54.401Z,7.49
2023-02-14T10:28:25.276Z,7.59
2023-02-14T10:32:53.085Z,7.77
2023-02-14T10:37:25.838Z,7.86
2023-02-14T10:41:58.639Z,8.00
2023-02-14T10:46:38.497Z,7.99
2023-02-14T10:51:05.119Z,8.09
2023-02-14T10:55:32.981Z,8.20
2023-02-14T10:59:59.657Z,8.28
2023-02-14T11:04:30.471Z,8.46
2023-02-14T11:08:57.288Z,8.49
2023-02-14T11:13:34.538Z,8.45
2023-02-14T11:18:09.354Z,8.29
2023-02-14T11:22:33.420Z,8.49
2023-02-14T11:26:58.384Z,8.63
2023-02-14T11:31:35.815Z,8.71
2023-02-14T11:36:02.528Z,8.83
2023-02-14T11:40:30.398Z,8.69
2023-02-14T11:44:57.386Z,8.79
2023-02-14T11:49:37.707Z,8.99
2023-02-14T11:54:02.774Z,9.18
2023-02-14T11:58:38.834Z,9.13
2023-02-14T12:03:08.415Z,9.12
2023-02-14T12:07:32.916Z,9.13
2023-02-14T12:12:05.691Z,9.11
2023-02-14T12:16:30.238Z,9.05
2023-02-14T12:20:58.540Z,8.99
2023-02-14T12:25:38.156Z,9.01
2023-02-14T12:30:11.240Z,8.91
2023-02-14T12:34:35.228Z,8.87
2023-02-14T12:38:59.127Z,8.84
2023-02-14T12:43:30.434Z,8.78
2023-02-14T12:48:06.492Z,8.65
2023-02-14T12:52:37.872Z,8.56
2023-02-14T12:57:10.541Z,8.48
2023-02-14T13:01:40.372Z,8.32
2023-02-14T13:06:18.521Z,8.19
2023-02-14T13:10:52.140Z,8.07
2023-02-14T13:15:25.059Z,7.90
2023-02-14T13:20:04.250Z,7.76
2023-02-14T13:24:26.424Z,7.63
2023-02-14T13:28:53.383Z,7.59
2023-02-14T13:33:17.583Z,7.56
2023-02-14T13:37:41.720Z,7.50
2023-02-14T13:42:05.620Z,7.41
2023-02-14T13:46:32.539Z,7.33
2023-02-14T13:50:59.609Z,7.30
2023-02-14T13:55:35.054Z,7.21
2023-02-14T14:00:04.846Z,7.12
2023-02-14T14:04:35.170Z,7.06
2023-02-14T14:09:01.174Z,7.01
2023-02-14T14:13:26.497Z,6.94
2023-02-14T14:17:59.414Z,6.89
2023-02-14T14:22:41.692Z,6.82
2023-02-14T14:27:08.599Z,6.76
2023-02-14T14:31:32.650Z,6.71
2023-02-14T14:36:07.989Z,6.65
2023-02-14T14:40:33.073Z,6.58
2023-02-14T14:44:57.166Z,6.50
2023-02-14T14:49:33.186Z,6.44
2023-02-14T14:53:50.299Z,6.36
2023-02-14T14:58:14.239Z,6.12
2023-02-14T15:02:39.265Z,5.92
2023-02-14T15:07:15.324Z,5.78
2023-02-14T15:11:46.679Z,5.56
2023-02-14T15:16:04.282Z,5.22
2023-02-14T15:20:29.354Z,4.90
2023-02-14T15:24:56.244Z,4.63
2023-02-14T15:29:38.161Z,4.37
2023-02-14T15:34:09.380Z,4.10
2023-02-14T15:38:33.473Z,3.78
2023-02-14T15:42:59.084Z,3.52
2023-02-14T15:47:26.036Z,3.35
2023-02-14T15:51:50.025Z,3.20
2023-02-14T15:56:13.942Z,3.06
2023-02-14T16:00:38.600Z,2.90
2023-02-14T16:05:05.431Z,2.72
2023-02-14T16:09:12.015Z,2.58
2023-02-14T16:13:37.160Z,2.50
2023-02-14T16:18:01.276Z,2.41
2023-02-14T16:22:37.396Z,2.36
2023-02-14T16:27:01.371Z,2.30
2023-02-14T16:31:18.310Z,2.18
2023-02-14T16:35:42.461Z,2.06
2023-02-14T16:40:06.477Z,1.98
2023-02-14T16:44:30.309Z,1.85
2023-02-14T16:48:54.294Z,1.63
2023-02-14T16:53:18.679Z,1.37
2023-02-14T16:57:42.549Z,1.19
2023-02-14T17:02:06.367Z,1.14
2023-02-14T17:06:30.682Z,1.14
2023-02-14T17:10:54.712Z,1.15
2023-02-14T17:15:18.608Z,1.14
2023-02-14T17:19:42.645Z,1.11
2023-02-14T17:24:15.786Z,1.02
2023-02-14T17:28:39.712Z,1.04
2023-02-14T17:32:56.335Z,1.02
2023-02-14T17:37:20.254Z,0.90
2023-02-14T17:41:50.999Z,0.82
2023-02-14T17:46:14.898Z,0.71
2023-02-14T17:50:38.924Z,0.65
2023-02-14T17:55:03.056Z,0.58
2023-02-14T17:59:27.062Z,0.53
2023-02-14T18:03:50.933Z,0.48
2023-02-14T18:08:15.025Z,0.44
2023-02-14T18:12:38.947Z,0.32
2023-02-14T18:17:25.735Z,0.29
2023-02-14T18:21:52.666Z,0.28
2023-02-14T18:26:17.312Z,0.26
2023-02-14T18:30:41.222Z,0.23
2023-02-14T18:35:05.165Z,0.16
2023-02-14T18:39:29.359Z,0.08
2023-02-14T18:43:53.453Z,0.08
2023-02-14T18:48:17.458Z,0.05
2023-02-14T18:53:01.920Z,-0.04
2023-02-14T18:57:25.906Z,-0.08
2023-02-14T19:01:52.592Z,-0.13
2023-02-14T19:05:56.406Z,-0.16
2023-02-14T19:10:20.344Z,-0.17
2023-02-14T19:14:47.202Z,-0.19
2023-02-14T19:19:14.203Z,-0.29
2023-02-14T19:23:41.356Z,-0.37
2023-02-14T19:28:05.497Z,-0.40
2023-02-14T19:32:29.447Z,-0.40
2023-02-14T19:36:59.292Z,-0.40
2023-02-14T19:41:25.480Z,-0.47
2023-02-14T19:45:49.799Z,-0.53
2023-02-14T19:50:13.878Z,-0.54
2023-02-14T19:54:37.783Z,-0.46
2023-02-14T19:59:01.776Z,-0.11
2023-02-14T20:03:26.589Z,-0.02
2023-02-14T20:08:10.524Z,0.05
2023-02-14T20:12:54.442Z,0.27
2023-02-14T20:17:18.436Z,0.44
2023-02-14T20:21:45.416Z,0.53
2023-02-14T20:26:09.384Z,0.62
2023-02-14T20:30:33.518Z,0.63
2023-02-14T20:34:58.032Z,0.76
2023-02-14T20:39:22.903Z,0.82
2023-02-14T20:43:47.700Z,0.79
2023-02-14T20:48:11.722Z,0.82
2023-02-14T20:52:35.591Z,1.02
2023-02-14T20:57:00.699Z,1.16
2023-02-14T21:01:47.289Z,1.34
2023-02-14T21:06:19.940Z,1.44
2023-02-14T21:10:33.859Z,1.29
2023-02-14T21:14:57.910Z,1.11
2023-02-14T21:19:22.324Z,0.93
2023-02-14T21:23:46.317Z,0.84
2023-02-14T21:28:10.264Z,0.80
2023-02-14T21:32:34.229Z,0.72
2023-02-14T21:36:58.197Z,0.83
2023-02-14T21:41:22.105Z,0.86
2023-02-14T21:45:44.626Z,0.79
2023-02-14T21:50:07.085Z,0.64
2023-02-14T21:54:31.017Z,0.66
2023-02-14T21:58:55.095Z,0.75
2023-02-14T22:03:18.948Z,0.74
2023-02-14T22:07:43.611Z,0.71
2023-02-14T22:12:10.538Z,0.40
2023-02-14T22:16:20.594Z,0.18
2023-02-14T22:20:44.742Z,0.22
2023-02-14T22:25:08.715Z,0.24
2023-02-14T22:29:32.684Z,-0.06
2023-02-14T22:33:56.583Z,-0.24
2023-02-14T22:38:20.557Z,-0.36
2023-02-14T22:42:44.445Z,-0.48
2023-02-14T22:47:08.515Z,-0.60
2023-02-14T22:51:32.450Z,-0.66
2023-02-14T22:55:56.519Z,-0.72
2023-02-14T23:00:20.446Z,-0.75
2023-02-14T23:04:47.783Z,-0.77
2023-02-14T23:09:12.637Z,-0.82
2023-02-14T23:13:35.270Z,-0.87
2023-02-14T23:17:57.788Z,-0.83
2023-02-14T23:22:22.080Z,-0.88
2023-02-14T23:26:46.050Z,-0.87
2023-02-14T23:31:10.288Z,-0.95
2023-02-14T23:35:34.267Z,-0.93
2023-02-14T23:39:56.611Z,-1.02
2023-02-14T23:44:20.593Z,-1.04
2023-02-14T23:48:45.298Z,-1.04
2023-02-14T23:53:09.300Z,-1.11
2023-02-14T23:57:33.262Z,-1.16
